Time;durP1;ratioP1;P1;durP2;ratioP2;P2;SDS_P1;SDS_P2;PMS_P1;PMS_P2;Temp;Humidity;BMP_temperature;BMP_pressure;BME280_temperature;BME280_humidity;BME280_pressure;Samples;Min_cycle;Max_cycle;Signal;HPM_P1;HPM_P2
2020/12/25 00:00:06;;;;;;;;;;;;;;;21.56;36.06;102658.16;3134115;27;114700;-58
2020/12/25 00:01:50;;;;;;;;;;;;;;;21.54;36.45;102671.66;3118791;27;113797;-58
2020/12/25 00:03:36;;;;;;;;;;;;;;;21.49;36.87;102660.38;3132841;27;114000;-58
2020/12/25 00:05:22;;;;;;;;;;;;;;;21.43;36.84;102664.28;3131955;27;114284;-58
2020/12/25 00:06:53;;;;;;;;;;;;;;;21.40;36.66;102663.97;3120835;27;114275;-58
2020/12/25 00:08:24;;;;;;;;;;;;;;;21.35;36.51;102667.59;3129947;27;114144;-58
2020/12/25 00:09:56;;;;;;;;;;;;;;;21.32;36.44;102676.59;3135416;27;114047;-58
2020/12/25 00:11:29;;;;;;;;;;;;;;;21.29;36.47;102671.50;3135003;27;114043;-58
2020/12/25 00:13:00;;;;;;;;;;;;;;;21.24;36.30;102674.28;3118469;27;114344;-58
2020/12/25 00:14:33;;;;;;;;;;;;;;;21.24;36.26;102674.28;3128776;27;114187;-58
2020/12/25 00:16:04;;;;;;;;;;;;;;;21.21;36.26;102672.03;3120469;27;114373;-58
2020/12/25 00:17:36;;;;;;;;;;;;;;;21.18;36.51;102666.94;3130395;27;114465;-58
2020/12/25 00:19:08;;;;;;;;;;;;;;;21.16;36.18;102675.66;3133233;27;114036;-58
2020/12/25 00:20:54;;;;;;;;;;;;;;;21.11;36.51;102672.78;3134537;27;113903;-58
2020/12/25 00:22:36;;;;;;;;;;;;;;;21.08;36.60;102676.09;3134611;27;113958;-58
2020/12/25 00:24:08;;;;;;;;;;;;;;;21.08;36.64;102675.25;3137648;27;114221;-58
2020/12/25 00:25:43;;;;;;;;;;;;;;;21.06;36.42;102683.97;3135275;27;115838;-58
2020/12/25 00:27:25;;;;;;;;;;;;;;;21.03;36.41;102687.31;3133930;27;114424;-58
2020/12/25 00:29:08;;;;;;;;;;;;;;;20.99;36.21;102690.91;3129835;27;114801;-58
2020/12/25 00:30:43;;;;;;;;;;;;;;;20.98;36.57;102684.47;3134393;27;115348;-58
2020/12/25 00:32:16;;;;;;;;;;;;;;;20.96;36.40;102683.91;3134151;27;114941;-58
2020/12/25 00:33:48;;;;;;;;;;;;;;;20.95;36.52;102682.19;3133896;27;114424;-58
2020/12/25 00:35:25;;;;;;;;;;;;;;;20.94;36.49;102680.50;3134414;27;115984;-58
2020/12/25 00:37:01;;;;;;;;;;;;;;;20.90;36.81;102687.75;3119958;27;114306;-58
2020/12/25 00:38:32;;;;;;;;;;;;;;;20.89;36.39;102694.53;3128562;27;114177;-58
2020/12/25 00:40:04;;;;;;;;;;;;;;;20.85;36.54;102690.53;3134599;27;114968;-58
2020/12/25 00:41:48;;;;;;;;;;;;;;;20.82;36.41;102685.47;3134690;27;115710;-58
2020/12/25 00:43:23;;;;;;;;;;;;;;;20.79;36.50;102680.38;3133845;27;114159;-58
2020/12/25 00:44:54;;;;;;;;;;;;;;;20.76;36.37;102678.94;3134464;27;113943;-58
2020/12/25 00:46:26;;;;;;;;;;;;;;;20.74;36.38;102684.00;3123565;27;114369;-58
2020/12/25 00:47:57;;;;;;;;;;;;;;;20.72;36.56;102691.84;3130290;27;115978;-58
2020/12/25 00:49:30;;;;;;;;;;;;;;;20.71;36.80;102692.13;3132976;27;115338;-58
2020/12/25 00:51:01;;;;;;;;;;;;;;;20.70;36.85;102693.22;3120509;27;115852;-58
2020/12/25 00:52:32;;;;;;;;;;;;;;;20.66;36.69;102697.69;3128738;27;114565;-58
2020/12/25 00:54:04;;;;;;;;;;;;;;;20.64;36.90;102691.47;3132673;27;114733;-58
2020/12/25 00:55:36;;;;;;;;;;;;;;;20.64;36.92;102689.53;3135123;27;114670;-59
2020/12/25 00:57:21;;;;;;;;;;;;;;;20.60;36.72;102687.50;3132616;27;114362;-58
2020/12/25 00:59:19;;;;;;;;;;;;;;;20.59;36.99;102697.03;3123022;27;115192;-58
2020/12/25 01:00:50;;;;;;;;;;;;;;;20.57;37.17;102699.28;3134156;27;115492;-58
2020/12/25 01:02:28;;;;;;;;;;;;;;;20.56;37.04;102697.59;3135389;27;114890;-58
2020/12/25 01:04:00;;;;;;;;;;;;;;;20.53;37.04;102700.94;3121388;27;115710;-58
2020/12/25 01:05:36;;;;;;;;;;;;;;;20.47;36.63;102693.56;3133669;27;115845;-58
2020/12/25 01:07:12;;;;;;;;;;;;;;;20.44;36.60;102689.34;3134709;27;114616;-58
2020/12/25 01:08:46;;;;;;;;;;;;;;;20.45;36.50;102690.16;3135494;27;116526;-58
2020/12/25 01:10:17;;;;;;;;;;;;;;;20.41;36.69;102684.22;3134560;27;114080;-58
2020/12/25 01:11:49;;;;;;;;;;;;;;;20.45;36.76;102687.34;3120214;27;114255;-58
2020/12/25 01:13:21;;;;;;;;;;;;;;;20.46;36.49;102680.63;3128474;27;114656;-58
2020/12/25 01:14:52;;;;;;;;;;;;;;;20.44;36.57;102683.72;3129497;27;114351;-58
2020/12/25 01:16:24;;;;;;;;;;;;;;;20.44;36.68;102666.88;3120878;27;113913;-58
2020/12/25 01:17:55;;;;;;;;;;;;;;;20.41;36.79;102679.47;3119031;27;114369;-59
2020/12/25 01:19:27;;;;;;;;;;;;;;;20.43;36.62;102679.22;3118421;27;114102;-59
2020/12/25 01:21:04;;;;;;;;;;;;;;;20.41;36.77;102685.09;3131211;27;114637;-57
2020/12/25 01:22:44;;;;;;;;;;;;;;;20.24;33.86;102684.31;3120015;27;113849;-59
2020/12/25 01:24:29;;;;;;;;;;;;;;;19.64;31.02;102678.81;3118371;27;114182;-58
2020/12/25 01:26:10;;;;;;;;;;;;;;;19.52;32.24;102689.31;3122586;27;114859;-58
2020/12/25 01:27:46;;;;;;;;;;;;;;;19.62;34.99;102686.66;3122764;27;114599;-57
2020/12/25 01:29:21;;;;;;;;;;;;;;;19.75;35.25;102691.03;3120928;27;114089;-58
2020/12/25 01:30:53;;;;;;;;;;;;;;;19.77;36.19;102684.03;3126645;27;113980;-59
2020/12/25 01:32:34;;;;;;;;;;;;;;;19.83;35.95;102673.72;3120372;27;115133;-58
2020/12/25 01:34:06;;;;;;;;;;;;;;;19.82;36.39;102675.69;3118567;27;114130;-58
2020/12/25 01:35:37;;;;;;;;;;;;;;;19.84;36.37;102684.69;3122423;27;114022;-58
2020/12/25 01:37:09;;;;;;;;;;;;;;;19.85;36.56;102680.75;3122437;27;114450;-58
2020/12/25 01:38:40;;;;;;;;;;;;;;;19.84;36.49;102689.47;3121325;27;115249;-59
2020/12/25 01:40:15;;;;;;;;;;;;;;;19.85;36.59;102680.75;3121928;27;114115;-57
2020/12/25 01:41:48;;;;;;;;;;;;;;;19.90;36.81;102697.66;3122564;27;115060;-57
2020/12/25 01:43:20;;;;;;;;;;;;;;;19.91;36.69;102696.56;3122326;27;114936;-58
2020/12/25 01:44:51;;;;;;;;;;;;;;;19.92;36.99;102709.47;3121003;27;114594;-57
2020/12/25 01:46:23;;;;;;;;;;;;;;;19.92;37.25;102711.44;3115497;27;115650;-58
2020/12/25 01:47:55;;;;;;;;;;;;;;;19.91;37.41;102713.38;3120437;27;114521;-58
2020/12/25 01:49:27;;;;;;;;;;;;;;;19.90;37.22;102706.06;3120844;27;114572;-58
2020/12/25 01:50:59;;;;;;;;;;;;;;;19.89;37.49;102710.00;3120324;27;114810;-58
2020/12/25 01:52:30;;;;;;;;;;;;;;;19.88;37.32;102711.13;3124183;27;114480;-58
2020/12/25 01:54:02;;;;;;;;;;;;;;;19.89;37.28;102721.22;3119936;27;115405;-57
2020/12/25 01:55:44;;;;;;;;;;;;;;;19.89;37.48;102723.19;3121688;27;115200;-57
2020/12/25 01:57:16;;;;;;;;;;;;;;;19.89;37.57;102715.63;3121595;27;114575;-58
2020/12/25 01:58:48;;;;;;;;;;;;;;;19.88;37.54;102725.16;3120685;27;115802;-58
2020/12/25 02:00:20;;;;;;;;;;;;;;;19.89;37.60;102734.41;3120189;27;115224;-58
2020/12/25 02:01:51;;;;;;;;;;;;;;;19.86;37.74;102730.16;3121940;27;115321;-58
2020/12/25 02:03:24;;;;;;;;;;;;;;;19.85;38.02;102731.25;3120752;27;114638;-57
2020/12/25 02:04:56;;;;;;;;;;;;;;;19.86;38.02;102735.75;3120081;27;114868;-58
2020/12/25 02:06:36;;;;;;;;;;;;;;;19.84;38.04;102721.16;3121142;27;114883;-58
2020/12/25 02:08:08;;;;;;;;;;;;;;;19.82;37.95;102714.09;3121384;27;116009;-58
2020/12/25 02:09:39;;;;;;;;;;;;;;;19.82;38.11;102726.19;3120896;27;115868;-58
2020/12/25 02:11:12;;;;;;;;;;;;;;;19.83;38.18;102724.22;3120870;27;115721;-59
2020/12/25 02:12:44;;;;;;;;;;;;;;;19.80;38.30;102734.03;3121431;27;115075;-59
2020/12/25 02:14:15;;;;;;;;;;;;;;;19.80;38.22;102727.56;3118540;27;114616;-59
2020/12/25 02:15:47;;;;;;;;;;;;;;;19.81;38.25;102727.28;3122868;27;115141;-59
2020/12/25 02:17:19;;;;;;;;;;;;;;;19.79;38.45;102729.50;3127271;27;114552;-59
2020/12/25 02:18:50;;;;;;;;;;;;;;;19.79;38.40;102726.69;3133054;27;114075;-59
2020/12/25 02:20:23;;;;;;;;;;;;;;;19.76;38.26;102727.19;3134081;27;114119;-59
2020/12/25 02:21:55;;;;;;;;;;;;;;;19.76;38.43;102732.81;3134518;27;114543;-58
2020/12/25 02:23:27;;;;;;;;;;;;;;;19.75;38.26;102736.75;3133655;27;114153;-59
2020/12/25 02:24:58;;;;;;;;;;;;;;;19.74;38.60;102740.66;3119865;27;115106;-58
2020/12/25 02:26:31;;;;;;;;;;;;;;;19.73;38.47;102726.88;3115857;27;114125;-59
2020/12/25 02:28:03;;;;;;;;;;;;;;;19.72;38.77;102734.44;3130177;27;113910;-59
2020/12/25 02:29:35;;;;;;;;;;;;;;;19.71;38.80;102734.72;3118116;27;114468;-59
2020/12/25 02:31:07;;;;;;;;;;;;;;;19.70;38.71;102733.88;3130317;27;113756;-59
2020/12/25 02:32:38;;;;;;;;;;;;;;;19.70;38.73;102733.88;3134993;27;114080;-59
2020/12/25 02:34:19;;;;;;;;;;;;;;;19.68;38.98;102738.03;3133084;27;114244;-59
2020/12/25 02:35:53;;;;;;;;;;;;;;;19.66;39.23;102732.69;3120039;27;113647;-59
2020/12/25 02:37:26;;;;;;;;;;;;;;;19.67;38.96;102739.16;3134873;27;114235;-59
2020/12/25 02:38:58;;;;;;;;;;;;;;;19.64;39.01;102740.50;3132210;27;115310;-59
2020/12/25 02:40:30;;;;;;;;;;;;;;;19.65;39.00;102735.75;3134813;27;114594;-59
2020/12/25 02:42:02;;;;;;;;;;;;;;;19.67;39.14;102747.56;3134308;27;114343;-59
2020/12/25 02:43:34;;;;;;;;;;;;;;;19.65;39.22;102746.97;3129285;27;115182;-58
2020/12/25 02:45:09;;;;;;;;;;;;;;;19.62;39.16;102751.16;3127935;27;114065;-59
2020/12/25 02:46:41;;;;;;;;;;;;;;;19.62;39.32;102759.56;3133900;27;115716;-58
2020/12/25 02:48:12;;;;;;;;;;;;;;;19.61;39.27;102757.84;3123001;27;114356;-59
2020/12/25 02:49:44;;;;;;;;;;;;;;;19.62;39.26;102765.16;3114317;27;114123;-58
2020/12/25 02:51:17;;;;;;;;;;;;;;;19.62;39.38;102769.94;3120319;27;114418;-58
2020/12/25 02:52:48;;;;;;;;;;;;;;;19.59;39.47;102760.06;3130446;27;114496;-58
2020/12/25 02:54:20;;;;;;;;;;;;;;;19.59;39.43;102771.28;3118627;27;114672;-58
2020/12/25 02:55:53;;;;;;;;;;;;;;;19.57;39.65;102769.84;3119028;27;116579;-58
2020/12/25 02:57:27;;;;;;;;;;;;;;;19.54;39.57;102766.44;3130260;27;114946;-58
2020/12/25 02:58:58;;;;;;;;;;;;;;;19.56;39.60;102774.59;3119357;27;114819;-59
2020/12/25 03:00:31;;;;;;;;;;;;;;;19.55;39.77;102767.28;3125672;27;114828;-59
2020/12/25 03:02:03;;;;;;;;;;;;;;;19.53;39.52;102770.34;3133733;27;115272;-58
2020/12/25 03:03:35;;;;;;;;;;;;;;;19.52;39.93;102765.88;3133444;27;114811;-59
2020/12/25 03:05:07;;;;;;;;;;;;;;;19.50;39.87;102765.25;3133996;27;116182;-59
2020/12/25 03:06:39;;;;;;;;;;;;;;;19.50;39.85;102773.66;3133841;27;115237;-58
2020/12/25 03:08:10;;;;;;;;;;;;;;;19.50;40.02;102772.81;3132927;27;115311;-59
2020/12/25 03:09:45;;;;;;;;;;;;;;;19.49;40.08;102783.19;3133947;27;115846;-60
2020/12/25 03:11:18;;;;;;;;;;;;;;;19.51;40.07;102774.53;3134128;27;114652;-60
2020/12/25 03:12:52;;;;;;;;;;;;;;;19.48;40.15;102766.63;3135173;27;115940;-60
2020/12/25 03:14:25;;;;;;;;;;;;;;;19.47;40.07;102773.34;3135027;27;114652;-59
2020/12/25 03:15:57;;;;;;;;;;;;;;;19.46;40.26;102780.03;3133823;27;115712;-60
2020/12/25 03:17:31;;;;;;;;;;;;;;;19.46;40.24;102775.28;3135112;27;115773;-60
2020/12/25 03:19:05;;;;;;;;;;;;;;;19.47;40.02;102773.34;3134996;27;115512;-60
2020/12/25 03:20:36;;;;;;;;;;;;;;;19.45;40.28;102772.72;3140040;27;115850;-60
2020/12/25 03:22:10;;;;;;;;;;;;;;;19.46;40.28;102774.44;3134917;27;114022;-59
2020/12/25 03:24:00;;;;;;;;;;;;;;;19.45;40.25;102775.53;3133591;27;116538;-60
2020/12/25 03:25:48;;;;;;;;;;;;;;;19.41;40.11;102775.19;3129695;27;113887;-60
2020/12/25 03:27:19;;;;;;;;;;;;;;;19.41;40.24;102766.78;3132135;27;114045;-60
2020/12/25 03:28:51;;;;;;;;;;;;;;;19.40;40.19;102778.22;3120818;27;113783;-60
2020/12/25 03:30:23;;;;;;;;;;;;;;;19.39;40.29;102776.56;3131838;27;113895;-60
2020/12/25 03:31:54;;;;;;;;;;;;;;;19.39;40.48;102768.13;3129105;27;114936;-59
2020/12/25 03:33:26;;;;;;;;;;;;;;;19.39;40.24;102779.34;3135010;27;113808;-59
2020/12/25 03:34:57;;;;;;;;;;;;;;;19.38;40.55;102777.66;3134759;27;113937;-59
2020/12/25 03:36:30;;;;;;;;;;;;;;;19.39;41.13;102776.56;3135646;27;116259;-58
2020/12/25 03:38:11;;;;;;;;;;;;;;;19.35;40.80;102770.59;3134602;27;115748;-58
2020/12/25 03:39:58;;;;;;;;;;;;;;;19.35;40.91;102772.56;3133321;27;114138;-58
2020/12/25 03:41:37;;;;;;;;;;;;;;;19.33;41.13;102767.22;3123848;27;114151;-58
2020/12/25 03:43:08;;;;;;;;;;;;;;;19.34;40.95;102768.06;3134619;27;114364;-58
2020/12/25 03:44:42;;;;;;;;;;;;;;;19.32;41.01;102759.91;3136827;27;114529;-58
2020/12/25 03:46:20;;;;;;;;;;;;;;;19.30;40.89;102767.72;3135424;27;114758;-59
2020/12/25 03:48:18;;;;;;;;;;;;;;;19.29;41.20;102765.16;3128980;27;114097;-59
2020/12/25 03:49:49;;;;;;;;;;;;;;;19.29;40.92;102766.03;3131219;27;114336;-59
2020/12/25 03:51:20;;;;;;;;;;;;;;;19.28;41.12;102750.31;3134289;27;115187;-59
2020/12/25 03:52:51;;;;;;;;;;;;;;;19.26;41.00;102760.91;3135123;27;115374;-59
2020/12/25 03:54:22;;;;;;;;;;;;;;;19.26;40.96;102760.09;3130694;27;114767;-59
2020/12/25 03:55:53;;;;;;;;;;;;;;;19.23;40.99;102761.44;3134753;27;115258;-60
2020/12/25 03:57:35;;;;;;;;;;;;;;;19.24;40.97;102760.34;3125837;27;114259;-59
2020/12/25 03:59:34;;;;;;;;;;;;;;;19.21;40.96;102763.66;3129957;27;114047;-58
2020/12/25 04:01:24;;;;;;;;;;;;;;;19.20;41.02;102763.91;3134666;27;114349;-58
2020/12/25 04:03:03;;;;;;;;;;;;;;;19.20;41.15;102761.09;3122306;27;114653;-59
2020/12/25 04:04:39;;;;;;;;;;;;;;;19.18;41.00;102758.53;3124258;27;114546;-58
2020/12/25 04:06:18;;;;;;;;;;;;;;;19.17;40.95;102756.00;3125732;27;115256;-59
2020/12/25 04:07:49;;;;;;;;;;;;;;;19.16;40.84;102760.78;3139826;27;114059;-57
2020/12/25 04:09:24;;;;;;;;;;;;;;;19.15;40.88;102764.66;3131991;27;115318;-58
2020/12/25 04:11:10;;;;;;;;;;;;;;;19.15;41.06;102763.81;3131921;27;116032;-57
2020/12/25 04:13:00;;;;;;;;;;;;;;;19.14;41.00;102762.09;3131738;27;114683;-57
2020/12/25 04:14:51;;;;;;;;;;;;;;;19.13;40.98;102768.81;3130115;27;115324;-57
2020/12/25 04:16:40;;;;;;;;;;;;;;;19.12;40.90;102764.34;3116469;27;116486;-58
2020/12/25 04:18:36;;;;;;;;;;;;;;;19.10;40.99;102759.81;3118991;27;114663;-58
2020/12/25 04:20:15;;;;;;;;;;;;;;;19.10;41.16;102767.38;3122976;27;115811;-60
2020/12/25 04:21:52;;;;;;;;;;;;;;;19.08;41.21;102766.78;3110376;27;114784;-59
2020/12/25 04:23:49;;;;;;;;;;;;;;;19.08;41.19;102766.78;3118829;27;115396;-58
2020/12/25 04:25:34;;;;;;;;;;;;;;;19.08;41.02;102766.78;3111344;27;115061;-58
2020/12/25 04:27:14;;;;;;;;;;;;;;;19.06;41.11;102769.00;3121897;27;115367;-58
2020/12/25 04:28:47;;;;;;;;;;;;;;;19.06;41.27;102780.19;3120236;27;117003;-58
2020/12/25 04:30:19;;;;;;;;;;;;;;;19.05;40.95;102789.69;3121324;27;114660;-58
2020/12/25 04:31:58;;;;;;;;;;;;;;;19.03;41.33;102781.53;3121503;27;115878;-59
2020/12/25 04:33:50;;;;;;;;;;;;;;;19.02;41.07;102788.28;3116056;27;114817;-58
2020/12/25 04:35:43;;;;;;;;;;;;;;;19.02;41.22;102782.66;3121930;27;113815;-59
2020/12/25 04:37:17;;;;;;;;;;;;;;;19.03;41.19;102783.53;3121022;27;114259;-60
2020/12/25 04:38:57;;;;;;;;;;;;;;;19.02;41.27;102795.81;3120669;27;114304;-60
2020/12/25 04:40:30;;;;;;;;;;;;;;;19.01;41.29;102792.16;3122766;27;114078;-60
2020/12/25 04:42:06;;;;;;;;;;;;;;;18.99;41.38;102783.16;3115206;27;114658;-59
2020/12/25 04:43:51;;;;;;;;;;;;;;;18.99;41.43;102785.94;3120275;27;114383;-60
2020/12/25 04:46:01;;;;;;;;;;;;;;;18.99;41.38;102794.34;3109993;27;114091;-59
2020/12/25 04:48:00;;;;;;;;;;;;;;;18.96;41.37;102794.88;3121624;27;113896;-58
2020/12/25 04:49:53;;;;;;;;;;;;;;;18.96;41.28;102796.81;3121422;27;114296;-58
2020/12/25 04:51:49;;;;;;;;;;;;;;;18.94;41.46;102797.06;3112149;27;113949;-58
2020/12/25 04:53:45;;;;;;;;;;;;;;;18.94;41.50;102804.66;3117334;27;114783;-58
2020/12/25 04:55:32;;;;;;;;;;;;;;;18.93;41.55;102805.75;3120221;27;114559;-58
2020/12/25 04:57:09;;;;;;;;;;;;;;;18.92;41.69;102795.63;3126760;27;114081;-58
2020/12/25 04:58:46;;;;;;;;;;;;;;;18.90;41.67;102798.69;3119147;27;115369;-60
2020/12/25 05:00:32;;;;;;;;;;;;;;;18.90;41.50;102807.06;3119009;27;114757;-60
2020/12/25 05:02:29;;;;;;;;;;;;;;;18.88;41.69;102800.03;3122278;27;114232;-58
2020/12/25 05:04:31;;;;;;;;;;;;;;;18.87;41.82;102790.78;3116019;27;114257;-58
2020/12/25 05:06:24;;;;;;;;;;;;;;;18.85;41.83;102803.34;3120533;27;114192;-58
2020/12/25 05:08:11;;;;;;;;;;;;;;;18.83;41.82;102798.00;3119967;27;114570;-58
2020/12/25 05:09:53;;;;;;;;;;;;;;;18.85;41.70;102801.38;3109139;27;115135;-58
2020/12/25 05:11:52;;;;;;;;;;;;;;;18.83;41.73;102797.16;3115756;27;114858;-58
2020/12/25 05:13:53;;;;;;;;;;;;;;;18.82;41.86;102801.91;3122283;27;114774;-58
2020/12/25 05:15:52;;;;;;;;;;;;;;;18.81;41.69;102808.59;3116643;27;114598;-59
2020/12/25 05:17:50;;;;;;;;;;;;;;;18.79;41.76;102809.97;3128264;27;114368;-58
2020/12/25 05:19:45;;;;;;;;;;;;;;;18.80;41.73;102803.25;3122484;27;114194;-58
2020/12/25 05:21:37;;;;;;;;;;;;;;;18.80;41.89;102792.06;3132633;27;114078;-59
2020/12/25 05:23:20;;;;;;;;;;;;;;;18.82;41.72;102810.28;3131105;27;115340;-59
2020/12/25 05:25:26;;;;;;;;;;;;;;;18.89;42.00;102810.16;3128760;27;116556;-58
2020/12/25 05:27:13;;;;;;;;;;;;;;;18.96;41.93;102803.28;3130049;27;114859;-58
2020/12/25 05:29:06;;;;;;;;;;;;;;;19.01;42.27;102810.94;3133304;27;116134;-58
2020/12/25 05:31:03;;;;;;;;;;;;;;;19.05;42.27;102807.38;3127065;27;115979;-59
2020/12/25 05:32:54;;;;;;;;;;;;;;;19.10;42.21;102815.00;3132105;27;113997;-58
2020/12/25 05:34:55;;;;;;;;;;;;;;;19.15;42.05;102814.25;3127608;27;114628;-58
2020/12/25 05:36:48;;;;;;;;;;;;;;;19.21;42.14;102819.69;3123324;27;114626;-59
2020/12/25 05:38:19;;;;;;;;;;;;;;;19.26;42.35;102819.75;3132968;27;115087;-58
2020/12/25 05:39:53;;;;;;;;;;;;;;;19.30;42.44;102825.72;3121235;27;115880;-58
2020/12/25 05:41:24;;;;;;;;;;;;;;;19.36;42.46;102827.50;3130238;27;115267;-58
2020/12/25 05:43:03;;;;;;;;;;;;;;;19.41;42.37;102822.81;3118876;27;114538;-59
2020/12/25 05:44:44;;;;;;;;;;;;;;;19.45;42.32;102826.84;3121625;27;115855;-58
2020/12/25 05:46:29;;;;;;;;;;;;;;;19.52;42.22;102835.09;3133177;27;115754;-58
2020/12/25 05:48:24;;;;;;;;;;;;;;;19.59;42.08;102834.91;3114050;27;115002;-58
2020/12/25 05:50:27;;;;;;;;;;;;;;;19.66;41.80;102835.59;3130640;27;115034;-58
2020/12/25 05:52:15;;;;;;;;;;;;;;;19.72;42.15;102831.75;3126742;27;113932;-58
2020/12/25 05:53:48;;;;;;;;;;;;;;;19.76;41.87;102838.56;3132178;27;114007;-58
2020/12/25 05:55:19;;;;;;;;;;;;;;;19.80;41.75;102837.78;3134304;27;114380;-58
2020/12/25 05:56:56;;;;;;;;;;;;;;;19.84;41.52;102833.38;3129908;27;113794;-58
2020/12/25 05:58:34;;;;;;;;;;;;;;;19.89;41.49;102838.22;3129209;27;113674;-58
2020/12/25 06:00:05;;;;;;;;;;;;;;;19.92;41.20;102841.34;3119413;27;114076;-58
2020/12/25 06:01:54;;;;;;;;;;;;;;;19.97;41.60;102841.41;3126935;27;115057;-58
2020/12/25 06:03:45;;;;;;;;;;;;;;;20.02;41.34;102840.63;3133460;27;115094;-58
2020/12/25 06:05:38;;;;;;;;;;;;;;;20.06;41.09;102839.00;3134249;27;113762;-58
2020/12/25 06:07:31;;;;;;;;;;;;;;;20.12;41.01;102845.53;3132701;27;113841;-58
2020/12/25 06:09:20;;;;;;;;;;;;;;;20.16;40.82;102838.31;3131879;27;114275;-58
2020/12/25 06:11:20;;;;;;;;;;;;;;;20.21;41.10;102841.19;3132235;27;113858;-59
2020/12/25 06:13:19;;;;;;;;;;;;;;;20.25;41.13;102840.41;3133925;27;113943;-59
2020/12/25 06:14:53;;;;;;;;;;;;;;;20.29;41.05;102844.38;3133993;27;114003;-58
2020/12/25 06:16:40;;;;;;;;;;;;;;;20.35;41.23;102842.53;3132656;27;115255;-59
2020/12/25 06:18:45;;;;;;;;;;;;;;;20.37;40.74;102852.38;3127281;27;114841;-59
2020/12/25 06:20:35;;;;;;;;;;;;;;;20.40;40.32;102846.22;3131929;27;114085;-59
2020/12/25 06:22:38;;;;;;;;;;;;;;;20.42;40.35;102846.81;3116296;27;114255;-60
2020/12/25 06:24:13;;;;;;;;;;;;;;;20.46;40.25;102847.16;3129924;27;115135;-59
2020/12/25 06:25:55;;;;;;;;;;;;;;;20.50;39.87;102848.31;3129389;27;114958;-59
2020/12/25 06:27:56;;;;;;;;;;;;;;;20.52;40.09;102845.25;3132457;27;115531;-59
2020/12/25 06:29:28;;;;;;;;;;;;;;;20.54;40.13;102857.06;3132104;27;114227;-59
2020/12/25 06:31:13;;;;;;;;;;;;;;;20.57;39.85;102851.78;3131717;27;115512;-60
2020/12/25 06:33:16;;;;;;;;;;;;;;;20.58;39.84;102850.66;3133479;27;114000;-59
2020/12/25 06:35:22;;;;;;;;;;;;;;;20.63;40.07;102856.34;3131704;27;114341;-60
2020/12/25 06:37:15;;;;;;;;;;;;;;;20.67;40.25;102860.31;3132891;27;116838;-59
2020/12/25 06:39:13;;;;;;;;;;;;;;;20.70;39.98;102851.38;3132565;27;114340;-60
2020/12/25 06:41:05;;;;;;;;;;;;;;;20.75;40.00;102856.22;3139149;27;114201;-59
2020/12/25 06:42:52;;;;;;;;;;;;;;;20.77;39.87;102862.41;3118884;27;116026;-59
2020/12/25 06:44:52;;;;;;;;;;;;;;;20.79;39.63;102865.81;3129893;27;115166;-58
2020/12/25 06:46:57;;;;;;;;;;;;;;;20.80;39.57;102865.53;3127821;27;114744;-59
2020/12/25 06:48:55;;;;;;;;;;;;;;;20.83;39.47;102870.63;3134179;27;118027;-58
2020/12/25 06:50:55;;;;;;;;;;;;;;;20.86;39.38;102872.91;3130517;27;115764;-59
2020/12/25 06:52:30;;;;;;;;;;;;;;;20.89;39.45;102870.69;3130572;27;114799;-59
2020/12/25 06:54:20;;;;;;;;;;;;;;;20.91;40.36;102858.06;3113110;27;115875;-58
2020/12/25 06:56:26;;;;;;;;;;;;;;;20.94;40.11;102871.56;3130013;27;114595;-58
2020/12/25 06:58:07;;;;;;;;;;;;;;;20.97;39.78;102870.22;3132432;27;114784;-58
2020/12/25 06:59:52;;;;;;;;;;;;;;;20.99;39.68;102876.41;3125590;27;116050;-60
2020/12/25 07:01:45;;;;;;;;;;;;;;;21.00;39.90;102870.53;3137623;27;114704;-59
2020/12/25 07:03:36;;;;;;;;;;;;;;;21.03;39.66;102864.34;3130769;27;115534;-59
2020/12/25 07:05:38;;;;;;;;;;;;;;;21.06;39.65;102861.03;3131411;27;115517;-58
2020/12/25 07:07:39;;;;;;;;;;;;;;;21.10;39.43;102855.72;3136385;27;115180;-58
2020/12/25 07:09:21;;;;;;;;;;;;;;;21.11;40.03;102852.66;3132727;27;114991;-58
2020/12/25 07:11:13;;;;;;;;;;;;;;;21.14;39.82;102854.97;3134882;27;114403;-57
2020/12/25 07:13:10;;;;;;;;;;;;;;;21.16;39.54;102860.31;3133580;27;114086;-57
2020/12/25 07:14:54;;;;;;;;;;;;;;;21.19;39.91;102863.44;3130401;27;113977;-58
2020/12/25 07:16:36;;;;;;;;;;;;;;;21.19;39.41;102868.22;3133426;27;114487;-58
2020/12/25 07:18:35;;;;;;;;;;;;;;;21.21;39.33;102872.44;3134107;27;114567;-57
2020/12/25 07:20:34;;;;;;;;;;;;;;;21.23;39.58;102872.19;3131819;27;114148;-57
2020/12/25 07:22:30;;;;;;;;;;;;;;;21.25;39.78;102884.03;3135078;27;114402;-58
2020/12/25 07:24:26;;;;;;;;;;;;;;;21.28;39.59;102886.31;3127418;27;114133;-57
2020/12/25 07:26:24;;;;;;;;;;;;;;;21.31;39.58;102880.13;3134329;27;114114;-58
2020/12/25 07:28:03;;;;;;;;;;;;;;;21.34;39.89;102881.59;3128879;27;114353;-57
2020/12/25 07:29:39;;;;;;;;;;;;;;;21.36;39.62;102883.00;3131198;27;114737;-57
2020/12/25 07:31:21;;;;;;;;;;;;;;;21.37;39.40;102887.50;3136425;27;113950;-58
2020/12/25 07:33:20;;;;;;;;;;;;;;;21.40;39.40;102892.59;3120958;27;114775;-58
2020/12/25 07:35:08;;;;;;;;;;;;;;;21.43;39.50;102891.22;3139570;27;113790;-58
2020/12/25 07:36:51;;;;;;;;;;;;;;;21.44;39.48;102885.31;3121812;27;115339;-58
2020/12/25 07:38:54;;;;;;;;;;;;;;;21.46;39.17;102885.06;3134674;27;115186;-58
2020/12/25 07:40:41;;;;;;;;;;;;;;;21.47;39.10;102882.00;3132108;27;116346;-58
2020/12/25 07:42:19;;;;;;;;;;;;;;;21.49;39.33;102879.75;3127290;27;113892;-58
2020/12/25 07:43:59;;;;;;;;;;;;;;;21.51;39.41;102885.09;3123809;27;115163;-58
2020/12/25 07:45:34;;;;;;;;;;;;;;;21.52;39.41;102893.28;3133557;27;115161;-58
2020/12/25 07:47:09;;;;;;;;;;;;;;;21.54;39.38;102896.66;3135081;27;115858;-58
2020/12/25 07:48:41;;;;;;;;;;;;;;;21.55;39.30;102903.13;3135036;27;115115;-59
2020/12/25 07:50:13;;;;;;;;;;;;;;;21.56;39.13;102894.44;3135371;27;114203;-59
2020/12/25 07:51:53;;;;;;;;;;;;;;;21.58;39.43;102894.16;3135918;27;115098;-58
2020/12/25 07:53:25;;;;;;;;;;;;;;;21.59;39.13;102898.66;3131905;27;115169;-58
2020/12/25 07:55:08;;;;;;;;;;;;;;;21.59;39.45;102891.09;3134709;27;115347;-58
2020/12/25 07:57:08;;;;;;;;;;;;;;;21.59;39.53;102891.09;3127599;27;114207;-58
2020/12/25 07:59:05;;;;;;;;;;;;;;;21.59;39.42;102899.53;3136920;27;114730;-58
2020/12/25 08:00:49;;;;;;;;;;;;;;;21.59;39.32;102905.16;3132310;27;116239;-58
2020/12/25 08:02:56;;;;;;;;;;;;;;;21.58;39.54;102900.63;3131470;27;115392;-58
2020/12/25 08:04:50;;;;;;;;;;;;;;;21.59;39.24;102899.53;3128773;27;114720;-58
2020/12/25 08:06:32;;;;;;;;;;;;;;;21.59;39.33;102905.16;3127828;27;115076;-58
2020/12/25 08:08:27;;;;;;;;;;;;;;;21.58;39.50;102905.41;3133655;27;114934;-58
2020/12/25 08:10:23;;;;;;;;;;;;;;;21.56;39.46;102908.50;3133269;27;115109;-58
2020/12/25 08:12:19;;;;;;;;;;;;;;;21.55;39.25;102905.94;3133950;27;116348;-58
2020/12/25 08:14:16;;;;;;;;;;;;;;;21.53;39.33;102911.00;3132797;27;117737;-58
2020/12/25 08:16:14;;;;;;;;;;;;;;;21.52;39.60;102909.31;3131671;27;115256;-58
2020/12/25 08:18:11;;;;;;;;;;;;;;;21.50;39.45;102909.56;3133679;27;114568;-58
2020/12/25 08:20:07;;;;;;;;;;;;;;;21.49;39.71;102909.81;3132888;27;114832;-58
2020/12/25 08:22:09;;;;;;;;;;;;;;;21.48;39.68;102919.41;3132737;27;115068;-58
2020/12/25 08:23:55;;;;;;;;;;;;;;;21.46;39.66;102918.81;3129433;27;114997;-58
2020/12/25 08:25:45;;;;;;;;;;;;;;;21.45;40.13;102915.16;3134991;27;114811;-58
2020/12/25 08:27:40;;;;;;;;;;;;;;;21.47;39.86;102910.13;3133002;27;114476;-58
2020/12/25 08:29:37;;;;;;;;;;;;;;;21.49;39.65;102915.44;3131392;27;114362;-58
2020/12/25 08:31:22;;;;;;;;;;;;;;;21.51;39.58;102913.22;3134721;27;113966;-58
2020/12/25 08:33:04;;;;;;;;;;;;;;;21.52;39.70;102912.97;3110153;27;113996;-58
2020/12/25 08:35:20;;;;;;;;;;;;;;;21.55;39.85;102912.44;3124803;27;115908;-59